Richmond Airport

Airport
ICAO code: 
YRMD
IATA Code: 
RCM
Summary
ICAO Region: 
APAC
Territory: 
Location: 
Richmond, Queensland
Serving: 
Richmond
Elevation: 
676 ft
Coordinates: 
Aerial View: 
20° 42' 14.004" S, 143° 7' 0.012" E
Metar
Observation
YRMD 011800Z AUTO 09009KT 9999 // NCD 25/16 Q1008
Station
Richmond Airport
Date/Time
2021-12-01 18:00:00
Wind direction
90°
Wind speed
09 kts
Lowest cloud amount
no clouds detected
Temperature
25°C
Dew point
16°C
Humidity
57%
QNH
1008 hPa
Weather condition
n/a

Richmond Airport is 3.2 km northwest of Richmond, Queensland, Australia.

Climatology

Temperate Marine climate/Oceanic climate (Köppen climate classification Cfb). Moderately cool summer and comparatively warm winter.

Runways

Designator Length Width Surface Rops
9/27 1524 30 ASP No/No
Airport map: 
Aerial View: 

SKYbrary Partners:

Safety knowledge contributed by: